Adco, Washington
Current Conditions -  °F | °C
As of 6:49 PM on Friday 21 Nov 2014 (Local Time) from KEPH Reporting Station
Light Rain Light Rain  
Wind Chill: 36°   Ceiling: 700
Heat Index: 36°   Visibility: 2.5mi
Dew Point: 34°   Wind: 0mph
Humidity: 93%   Direction: NA
Pressure: 29.47"   Gusts: NA
Location:  47.4314°N, 119.485°W
Report Text: KEPH 220249Z AUTO 00000KT 2 1/2SM -RA BR OVC007 02/01 A2947 RMK AO2 RAB06FZRAE06 CIG 005V008 PRESFR P0013 I1000
Loading
Personal Weather Stations






























Interactive Weather Map New forecast layout! Learn more

10-Day Weather Forecast

Advertisements
Track Severe Weather on mobile